Time;durP1;ratioP1;P1;durP2;ratioP2;P2;SDS_P1;SDS_P2;PMS_P1;PMS_P2;Temp;Humidity;BMP_temperature;BMP_pressure;BME280_temperature;BME280_humidity;BME280_pressure;Samples;Min_cycle;Max_cycle;Signal;HPM_P1;HPM_P2
2021/11/07 00:01:55;;;;;;;69.18;19.83;;;7.30;91.20;;;;;;6254120;28;20043;-86
2021/11/07 00:05:03;;;;;;;66.30;18.23;;;7.30;91.20;;;;;;6248523;28;20049;-85
2021/11/07 00:08:29;;;;;;;87.22;21.95;;;7.20;91.00;;;;;;6248317;28;20068;-85
2021/11/07 00:11:33;;;;;;;74.97;21.60;;;7.10;91.20;;;;;;6251886;28;20049;-84
2021/11/07 00:14:35;;;;;;;71.53;18.90;;;7.10;91.30;;;;;;6251342;28;20471;-84
2021/11/07 00:17:38;;;;;;;73.03;18.30;;;7.00;91.30;;;;;;6250148;28;20051;-85
2021/11/07 00:20:48;;;;;;;69.95;19.50;;;7.00;91.30;;;;;;6248999;28;20099;-85
2021/11/07 00:23:58;;;;;;;66.18;17.45;;;7.00;91.40;;;;;;6250163;28;20042;-85
2021/11/07 00:27:05;;;;;;;83.70;19.00;;;7.00;91.20;;;;;;6249863;28;20057;-85
2021/11/07 00:30:16;;;;;;;64.95;18.17;;;7.00;91.30;;;;;;6247783;28;20095;-85
2021/11/07 00:33:23;;;;;;;67.07;18.70;;;7.00;91.30;;;;;;6247739;28;20045;-85
2021/11/07 00:36:29;;;;;;;64.70;18.42;;;7.00;91.10;;;;;;6248855;28;20068;-84
2021/11/07 00:39:39;;;;;;;68.28;17.17;;;7.00;91.20;;;;;;6268429;28;20052;-84
2021/11/07 00:42:48;;;;;;;66.97;18.73;;;7.00;91.10;;;;;;6273130;28;20048;-84
2021/11/07 00:46:02;;;;;;;79.70;20.40;;;7.00;91.20;;;;;;6272216;28;20049;-85
2021/11/07 00:49:07;;;;;;;77.72;17.98;;;7.00;91.40;;;;;;6274035;28;20544;-85
2021/11/07 00:52:20;;;;;;;83.95;20.88;;;7.00;91.40;;;;;;6274657;28;20044;-85
2021/11/07 00:55:26;;;;;;;83.13;20.15;;;6.90;91.40;;;;;;6273232;28;20502;-84
2021/11/07 00:58:35;;;;;;;73.22;18.92;;;7.00;91.50;;;;;;6273142;28;20465;-85
2021/11/07 01:01:41;;;;;;;77.45;19.50;;;7.00;91.60;;;;;;6256155;28;20046;-84
2021/11/07 01:04:46;;;;;;;78.70;19.42;;;6.90;91.70;;;;;;6253364;28;20049;-85
2021/11/07 01:07:49;;;;;;;85.72;20.08;;;6.90;91.70;;;;;;6253908;28;20887;-83
2021/11/07 01:10:51;;;;;;;73.90;19.67;;;7.00;91.70;;;;;;6254384;28;20128;-85
2021/11/07 01:13:53;;;;;;;73.43;19.58;;;7.00;91.70;;;;;;6252167;28;20073;-84
2021/11/07 01:16:55;;;;;;;88.22;21.63;;;7.00;91.80;;;;;;6252380;28;20045;-84
2021/11/07 01:19:57;;;;;;;86.35;20.85;;;7.10;91.80;;;;;;6251298;28;20131;-84
2021/11/07 01:23:09;;;;;;;76.85;21.60;;;7.10;91.70;;;;;;6253080;28;20049;-85
2021/11/07 01:26:15;;;;;;;88.95;22.88;;;7.10;91.60;;;;;;6252957;28;20045;-83
2021/11/07 01:29:21;;;;;;;88.95;19.70;;;7.10;91.80;;;;;;6251217;28;20116;-84
2021/11/07 01:32:24;;;;;;;96.43;22.08;;;7.00;91.80;;;;;;6254988;28;20041;-83
2021/11/07 01:35:32;;;;;;;85.07;20.85;;;7.00;92.00;;;;;;6252217;28;20060;-84
2021/11/07 01:38:39;;;;;;;95.43;22.88;;;7.10;92.00;;;;;;6267868;28;20057;-84
2021/11/07 01:41:54;;;;;;;105.20;23.48;;;7.20;92.00;;;;;;6278758;28;20087;-84
2021/11/07 01:44:59;;;;;;;83.95;22.85;;;7.20;91.80;;;;;;6278170;28;20055;-83
2021/11/07 01:48:08;;;;;;;84.10;20.58;;;7.20;91.80;;;;;;6281298;28;20044;-85
2021/11/07 01:51:10;;;;;;;115.18;24.77;;;7.20;91.90;;;;;;6280260;28;20430;-84
2021/11/07 01:54:22;;;;;;;159.80;26.85;;;7.20;91.90;;;;;;6279011;28;20048;-84
2021/11/07 01:57:26;;;;;;;104.50;22.92;;;7.20;91.90;;;;;;6278830;28;20068;-84
2021/11/07 02:00:32;;;;;;;96.00;22.67;;;7.30;91.90;;;;;;6277603;28;20094;-83
2021/11/07 02:03:34;;;;;;;114.05;24.35;;;7.40;91.90;;;;;;6281439;28;20098;-84
2021/11/07 02:06:36;;;;;;;111.15;24.75;;;7.40;91.80;;;;;;6283943;28;20055;-83
2021/11/07 02:09:40;;;;;;;118.53;26.00;;;7.40;91.90;;;;;;6280428;28;20122;-84
2021/11/07 02:12:42;;;;;;;130.13;26.83;;;7.50;91.80;;;;;;6279612;28;20052;-85
2021/11/07 02:15:47;;;;;;;126.43;27.55;;;7.50;91.80;;;;;;6279321;28;20045;-84
2021/11/07 02:18:49;;;;;;;118.57;25.80;;;7.60;91.80;;;;;;6279985;28;20660;-85
2021/11/07 02:21:52;;;;;;;117.13;26.23;;;7.50;91.70;;;;;;6293855;22;20064;-83
2021/11/07 02:24:54;;;;;;;129.65;28.35;;;7.60;91.90;;;;;;6278798;28;20071;-82
2021/11/07 02:27:57;;;;;;;128.18;29.58;;;7.60;91.90;;;;;;6279443;28;20052;-83
2021/11/07 02:30:59;;;;;;;129.98;29.45;;;7.60;91.90;;;;;;6278633;28;20063;-82
2021/11/07 02:34:01;;;;;;;136.68;29.30;;;7.60;92.00;;;;;;6278675;28;20067;-82
2021/11/07 02:37:04;;;;;;;106.85;27.10;;;7.70;92.00;;;;;;6278074;28;20049;-82
2021/11/07 02:40:09;;;;;;;133.82;29.70;;;7.70;91.80;;;;;;6278198;28;20513;-82
2021/11/07 02:43:10;;;;;;;121.35;27.63;;;7.70;91.90;;;;;;6279109;28;20049;-82
2021/11/07 02:46:15;;;;;;;107.28;28.13;;;7.70;91.80;;;;;;6278363;28;20091;-80
2021/11/07 02:49:17;;;;;;;118.47;27.58;;;7.70;91.90;;;;;;6277930;28;20076;-82
2021/11/07 02:52:21;;;;;;;86.47;25.67;;;7.80;92.00;;;;;;6277645;28;20502;-82
2021/11/07 02:55:24;;;;;;;109.32;27.40;;;7.80;91.70;;;;;;6277129;28;20505;-80
2021/11/07 02:58:25;;;;;;;94.00;27.48;;;7.80;91.80;;;;;;6277107;28;20135;-81
2021/11/07 03:01:29;;;;;;;94.45;24.15;;;7.90;91.50;;;;;;6269864;28;20048;-82
2021/11/07 03:04:31;;;;;;;78.75;25.13;;;7.90;91.70;;;;;;6277888;28;20053;-81
2021/11/07 03:07:35;;;;;;;73.53;22.63;;;7.90;91.50;;;;;;6277091;28;20052;-80
2021/11/07 03:10:37;;;;;;;67.53;22.42;;;7.90;91.30;;;;;;6277748;28;20044;-81
2021/11/07 03:13:39;;;;;;;61.95;19.83;;;7.80;91.20;;;;;;6293211;28;20049;-80
2021/11/07 03:16:43;;;;;;;74.60;22.88;;;7.80;91.30;;;;;;6278822;28;20045;-81
2021/11/07 03:19:45;;;;;;;68.15;23.23;;;7.80;91.40;;;;;;6278436;28;20072;-82
2021/11/07 03:22:50;;;;;;;55.33;18.90;;;7.80;91.40;;;;;;6279242;28;20051;-82
2021/11/07 03:26:01;;;;;;;56.78;19.65;;;7.80;91.30;;;;;;6277402;28;20449;-81
2021/11/07 03:29:04;;;;;;;48.65;19.10;;;7.80;91.30;;;;;;6276988;28;20167;-83
2021/11/07 03:32:09;;;;;;;58.28;19.88;;;7.80;91.10;;;;;;6277134;28;20502;-81
2021/11/07 03:35:17;;;;;;;43.35;16.88;;;7.70;91.20;;;;;;6278317;28;20044;-82
2021/11/07 03:38:21;;;;;;;51.60;17.85;;;7.80;91.20;;;;;;6275765;28;20409;-83
2021/11/07 03:41:22;;;;;;;49.65;18.77;;;7.80;91.00;;;;;;6275984;28;20044;-85
2021/11/07 03:44:24;;;;;;;50.85;18.48;;;7.80;90.90;;;;;;6276911;28;20128;-80
2021/11/07 03:47:26;;;;;;;39.63;17.45;;;7.70;90.90;;;;;;6276552;28;20049;-82
2021/11/07 03:50:29;;;;;;;51.33;17.52;;;7.70;91.00;;;;;;6277618;28;20049;-82
2021/11/07 03:53:32;;;;;;;42.60;16.65;;;7.70;90.90;;;;;;6275754;28;20048;-82
2021/11/07 03:56:35;;;;;;;44.75;18.05;;;7.60;90.90;;;;;;6275772;28;20124;-82
2021/11/07 03:59:36;;;;;;;41.10;17.35;;;7.70;91.00;;;;;;6275442;28;20072;-81
2021/11/07 04:02:39;;;;;;;45.45;17.77;;;7.60;90.80;;;;;;6264269;28;20072;-80
2021/11/07 04:05:41;;;;;;;41.05;16.70;;;7.60;90.80;;;;;;6275895;28;20130;-81
2021/11/07 04:08:45;;;;;;;41.20;15.50;;;7.60;90.90;;;;;;6275923;28;20230;-82
2021/11/07 04:11:47;;;;;;;43.58;16.23;;;7.70;90.90;;;;;;6275786;28;20124;-82
2021/11/07 04:14:49;;;;;;;38.00;16.98;;;7.70;90.80;;;;;;6275736;28;20179;-83
2021/11/07 04:17:51;;;;;;;44.05;18.45;;;7.80;90.70;;;;;;6274750;28;20079;-81
2021/11/07 04:20:52;;;;;;;45.50;17.10;;;7.80;90.60;;;;;;6274624;28;20105;-83
2021/11/07 04:23:55;;;;;;;38.63;16.75;;;7.80;90.60;;;;;;6274802;28;20143;-80
2021/11/07 04:26:59;;;;;;;44.72;18.20;;;7.80;90.50;;;;;;6274526;28;20049;-83
2021/11/07 04:30:01;;;;;;;29.70;14.90;;;7.80;90.50;;;;;;6274542;28;20524;-80
2021/11/07 04:33:03;;;;;;;40.15;17.13;;;7.80;90.50;;;;;;6273687;28;20045;-83
2021/11/07 04:36:06;;;;;;;37.38;15.23;;;7.80;90.50;;;;;;6276275;28;20041;-81
2021/11/07 04:39:09;;;;;;;35.15;17.13;;;7.80;90.50;;;;;;6279303;28;20049;-81
2021/11/07 04:42:11;;;;;;;42.00;15.43;;;7.70;90.40;;;;;;6279327;28;20037;-82
2021/11/07 04:45:13;;;;;;;42.45;17.13;;;7.60;90.50;;;;;;6280525;28;20041;-80
2021/11/07 04:48:15;;;;;;;36.47;16.88;;;7.50;90.90;;;;;;6280846;28;20114;-81
2021/11/07 04:51:18;;;;;;;51.60;18.58;;;7.50;90.70;;;;;;6280530;28;20049;-80
2021/11/07 04:54:21;;;;;;;37.20;17.88;;;7.50;90.70;;;;;;6281254;28;20073;-82
2021/11/07 04:57:23;;;;;;;35.10;15.63;;;7.40;90.70;;;;;;6282429;28;20517;-82
2021/11/07 05:00:25;;;;;;;40.30;16.88;;;7.30;90.90;;;;;;6281732;28;20170;-82
2021/11/07 05:03:28;;;;;;;47.03;19.05;;;7.20;91.10;;;;;;6276853;28;20069;-83
2021/11/07 05:06:31;;;;;;;49.83;17.67;;;7.20;91.20;;;;;;6257579;28;20059;-82
2021/11/07 05:09:34;;;;;;;49.83;18.55;;;7.30;91.20;;;;;;6257517;28;20045;-84
2021/11/07 05:12:36;;;;;;;38.75;17.17;;;7.30;91.20;;;;;;6257147;28;20109;-82
2021/11/07 05:15:38;;;;;;;45.10;16.08;;;7.20;91.20;;;;;;6256975;28;20132;-81
2021/11/07 05:18:40;;;;;;;42.78;16.60;;;7.20;91.20;;;;;;6257242;28;20049;-82
2021/11/07 05:21:42;;;;;;;47.95;17.85;;;7.10;91.50;;;;;;6256785;28;20045;-82
2021/11/07 05:24:45;;;;;;;39.90;14.02;;;7.10;91.30;;;;;;6256483;28;20099;-82
2021/11/07 05:27:47;;;;;;;44.22;19.90;;;7.10;91.40;;;;;;6255828;28;20041;-82
2021/11/07 05:30:48;;;;;;;36.80;15.85;;;7.10;91.40;;;;;;6256633;28;20136;-80
2021/11/07 05:33:51;;;;;;;35.63;14.75;;;7.10;91.30;;;;;;6256618;28;20125;-83
2021/11/07 05:36:53;;;;;;;33.95;14.13;;;7.10;91.30;;;;;;6255477;28;20523;-80
2021/11/07 05:39:56;;;;;;;31.92;14.77;;;7.10;91.20;;;;;;6255032;28;20481;-82
2021/11/07 05:42:59;;;;;;;35.10;15.80;;;7.00;91.30;;;;;;6257153;28;20521;-82
2021/11/07 05:46:00;;;;;;;33.97;15.02;;;7.00;91.30;;;;;;6256455;28;20046;-81
2021/11/07 05:49:03;;;;;;;34.65;13.93;;;7.00;91.20;;;;;;6255302;28;20045;-83
2021/11/07 05:52:05;;;;;;;34.70;15.98;;;6.90;91.30;;;;;;6257027;28;20042;-83
2021/11/07 05:55:09;;;;;;;36.38;14.43;;;6.90;91.40;;;;;;6257881;28;20053;-82
2021/11/07 05:58:11;;;;;;;41.08;16.05;;;7.00;91.30;;;;;;6257182;28;20400;-82
2021/11/07 06:01:12;;;;;;;36.30;13.60;;;7.00;90.90;;;;;;6256380;28;20077;-81
2021/11/07 06:04:14;;;;;;;42.35;15.77;;;7.00;91.00;;;;;;6269429;28;20112;-82
2021/11/07 06:07:16;;;;;;;38.88;15.25;;;6.90;91.00;;;;;;6281404;28;20053;-80
2021/11/07 06:10:20;;;;;;;38.90;15.57;;;6.80;91.10;;;;;;6281022;28;20045;-84
2021/11/07 06:13:22;;;;;;;36.35;15.57;;;6.60;91.20;;;;;;6281211;28;20128;-83
2021/11/07 06:16:23;;;;;;;33.95;12.82;;;6.60;91.40;;;;;;6281096;28;20044;-82
2021/11/07 06:19:25;;;;;;;34.17;14.85;;;6.60;91.40;;;;;;6280780;28;20178;-83
2021/11/07 06:22:27;;;;;;;35.63;13.57;;;6.60;91.50;;;;;;6282323;28;20148;-81
2021/11/07 06:25:31;;;;;;;41.13;17.33;;;6.70;91.40;;;;;;6281252;28;20124;-84
2021/11/07 06:28:32;;;;;;;38.15;15.43;;;6.80;91.50;;;;;;6281635;28;20112;-79
2021/11/07 06:31:34;;;;;;;32.33;15.27;;;6.90;91.30;;;;;;6281028;28;20067;-80
2021/11/07 06:34:37;;;;;;;34.58;13.98;;;7.00;91.00;;;;;;6280039;28;20052;-82
2021/11/07 06:37:39;;;;;;;35.08;14.75;;;7.10;91.00;;;;;;6281746;28;20056;-82
2021/11/07 06:40:42;;;;;;;30.35;16.02;;;7.30;90.80;;;;;;6280508;28;20065;-81
2021/11/07 06:43:44;;;;;;;29.63;15.00;;;7.40;90.50;;;;;;6279645;28;20179;-82
2021/11/07 06:46:46;;;;;;;30.25;15.82;;;7.40;90.60;;;;;;6280018;28;20061;-82
2021/11/07 06:49:49;;;;;;;27.60;12.88;;;7.50;90.30;;;;;;6279327;28;20048;-82
2021/11/07 06:52:51;;;;;;;27.80;12.98;;;7.50;90.20;;;;;;6281899;28;20037;-83
2021/11/07 06:55:55;;;;;;;35.08;20.50;;;7.60;90.10;;;;;;6289091;28;20064;-84
2021/11/07 06:58:57;;;;;;;30.23;15.70;;;7.70;89.50;;;;;;6284190;28;20110;-82
2021/11/07 07:02:00;;;;;;;30.75;14.60;;;7.70;89.00;;;;;;6280181;28;20045;-82
2021/11/07 07:05:03;;;;;;;32.75;13.77;;;7.70;88.90;;;;;;6273906;28;20560;-82
2021/11/07 07:08:11;;;;;;;28.83;12.50;;;7.60;89.00;;;;;;6280873;28;20087;-82
2021/11/07 07:11:22;;;;;;;23.38;11.52;;;7.60;89.00;;;;;;6280063;28;20124;-82
2021/11/07 07:14:27;;;;;;;24.52;12.25;;;7.70;88.90;;;;;;6281010;28;20048;-84
2021/11/07 07:17:35;;;;;;;30.50;13.57;;;7.70;88.60;;;;;;6280750;28;20052;-83
2021/11/07 07:20:46;;;;;;;24.13;10.73;;;7.70;88.40;;;;;;6278195;28;20053;-82
2021/11/07 07:27:22;;;;;;;27.52;10.80;;;7.70;88.30;;;;;;6207034;28;20110;-81
2021/11/07 07:30:34;;;;;;;28.85;11.77;;;7.80;88.30;;;;;;6277345;28;20510;-81
2021/11/07 07:33:39;;;;;;;24.38;10.38;;;8.00;87.70;;;;;;6278047;28;20049;-81
2021/11/07 07:36:41;;;;;;;26.17;10.75;;;8.10;87.00;;;;;;6277120;28;20044;-82
2021/11/07 07:39:43;;;;;;;20.27;9.50;;;8.30;86.10;;;;;;6277075;28;20091;-84
2021/11/07 07:42:46;;;;;;;21.08;10.95;;;8.40;85.70;;;;;;6276439;28;20149;-82
2021/11/07 07:45:48;;;;;;;23.08;10.25;;;8.50;85.20;;;;;;6279833;28;20072;-81
2021/11/07 07:48:50;;;;;;;16.90;8.60;;;8.60;84.70;;;;;;6276602;28;20155;-82
2021/11/07 07:51:53;;;;;;;25.08;10.25;;;8.70;84.30;;;;;;6276233;28;20099;-81
2021/11/07 07:54:56;;;;;;;22.88;10.13;;;8.70;83.80;;;;;;6276997;28;20052;-83
2021/11/07 07:57:59;;;;;;;22.95;11.13;;;8.70;83.90;;;;;;6276762;28;20045;-82
2021/11/07 08:01:01;;;;;;;21.80;11.27;;;8.70;83.50;;;;;;6275874;28;20087;-81
2021/11/07 08:04:04;;;;;;;30.58;13.88;;;8.70;83.40;;;;;;6276738;28;20120;-81
2021/11/07 08:07:07;;;;;;;50.60;21.48;;;8.80;83.50;;;;;;6271153;28;20139;-80
2021/11/07 08:10:09;;;;;;;21.63;11.93;;;8.90;83.40;;;;;;6276057;28;20052;-82
2021/11/07 08:13:13;;;;;;;20.73;11.07;;;8.90;82.60;;;;;;6280066;28;20164;-80
2021/11/07 08:16:15;;;;;;;20.65;10.88;;;9.00;82.40;;;;;;6286821;28;20068;-82
2021/11/07 08:19:17;;;;;;;22.33;11.07;;;9.20;82.20;;;;;;6287703;28;20049;-83
2021/11/07 08:22:19;;;;;;;19.90;9.05;;;9.30;81.50;;;;;;6283067;28;20530;-83
2021/11/07 08:25:22;;;;;;;19.90;8.63;;;9.40;80.80;;;;;;6282935;28;20128;-84
2021/11/07 08:28:25;;;;;;;22.17;10.60;;;9.60;80.00;;;;;;6281609;28;20049;-84
2021/11/07 08:31:29;;;;;;;17.25;8.85;;;9.80;79.50;;;;;;6281741;28;20123;-81
2021/11/07 08:34:32;;;;;;;17.05;8.85;;;10.10;79.20;;;;;;6283225;28;20092;-84
2021/11/07 08:37:36;;;;;;;21.52;11.40;;;10.00;78.10;;;;;;6282520;28;20108;-84
2021/11/07 08:40:42;;;;;;;23.33;11.85;;;10.00;77.80;;;;;;6281387;28;20049;-84
2021/11/07 09:00:33;;;;;;;19.73;9.75;;;10.00;76.70;;;;;;6281004;28;20053;-78
2021/11/07 09:03:45;;;;;;;18.70;9.55;;;10.00;77.60;;;;;;6281187;28;20051;-82
2021/11/07 09:06:59;;;;;;;34.65;16.75;;;10.10;77.00;;;;;;6275519;28;20054;-85
2021/11/07 09:10:04;;;;;;;32.80;16.02;;;10.20;77.50;;;;;;6279936;28;20055;-82
2021/11/07 09:13:09;;;;;;;22.17;11.23;;;10.30;76.90;;;;;;6281017;28;20092;-82
2021/11/07 09:16:14;;;;;;;21.58;11.90;;;10.50;76.40;;;;;;6281854;28;20052;-82
2021/11/07 09:19:19;;;;;;;22.55;9.57;;;10.50;76.40;;;;;;6281485;28;20060;-82
2021/11/07 09:22:28;;;;;;;17.80;9.48;;;10.60;76.20;;;;;;6280093;28;20119;-82
2021/11/07 09:25:35;;;;;;;15.05;8.48;;;10.70;75.20;;;;;;6281132;28;20040;-82
2021/11/07 09:28:43;;;;;;;24.88;9.13;;;10.60;74.80;;;;;;6281615;28;20056;-82
2021/11/07 09:32:03;;;;;;;17.00;8.52;;;10.60;75.40;;;;;;6282213;28;20048;-82
2021/11/07 09:35:21;;;;;;;18.27;10.15;;;10.70;75.40;;;;;;6282854;28;20041;-81
2021/11/07 09:38:26;;;;;;;19.63;9.65;;;10.50;75.40;;;;;;6281685;28;20051;-82
2021/11/07 09:41:35;;;;;;;20.25;9.13;;;10.60;75.30;;;;;;6281009;28;20545;-82
2021/11/07 09:44:40;;;;;;;21.02;10.77;;;10.60;75.30;;;;;;6281540;28;20129;-83
2021/11/07 09:47:48;;;;;;;18.98;8.80;;;10.60;74.70;;;;;;6282479;28;20494;-82
2021/11/07 09:50:52;;;;;;;20.27;9.65;;;10.60;74.50;;;;;;6283532;28;20048;-83
2021/11/07 09:53:56;;;;;;;20.98;9.80;;;10.60;74.40;;;;;;6282625;28;20071;-83
2021/11/07 09:57:00;;;;;;;19.23;8.55;;;10.80;74.40;;;;;;6283885;28;20068;-83
2021/11/07 10:00:07;;;;;;;21.70;10.68;;;10.90;73.80;;;;;;6283366;28;20045;-82
2021/11/07 10:03:14;;;;;;;18.60;7.90;;;11.00;72.90;;;;;;6283823;28;20064;-82
2021/11/07 10:06:29;;;;;;;21.05;9.35;;;11.10;73.00;;;;;;6282418;28;20073;-84
2021/11/07 10:09:36;;;;;;;17.45;8.18;;;11.30;72.20;;;;;;6280147;28;20053;-84
2021/11/07 10:12:40;;;;;;;20.13;8.90;;;11.50;71.60;;;;;;6284431;28;20060;-84
2021/11/07 10:15:44;;;;;;;17.15;7.63;;;11.60;71.80;;;;;;6285259;28;20052;-84
2021/11/07 10:18:56;;;;;;;14.48;7.70;;;11.80;70.30;;;;;;6285932;28;20049;-84
2021/11/07 10:21:58;;;;;;;14.93;6.93;;;11.70;70.10;;;;;;6289310;28;20041;-82
2021/11/07 10:25:00;;;;;;;14.48;6.68;;;11.70;70.40;;;;;;6289647;28;20049;-85
2021/11/07 10:28:13;;;;;;;9.98;5.57;;;11.70;70.40;;;;;;6280587;28;20409;-80
2021/11/07 10:31:18;;;;;;;11.45;6.10;;;11.70;70.20;;;;;;6281943;28;20041;-84
2021/11/07 10:34:33;;;;;;;13.98;6.50;;;11.80;69.80;;;;;;6285739;28;20043;-82
2021/11/07 10:41:07;;;;;;;12.63;6.10;;;11.90;69.50;;;;;;6271058;28;20033;-82
2021/11/07 10:44:22;;;;;;;11.80;5.85;;;11.90;68.70;;;;;;6278638;28;20037;-84
2021/11/07 10:47:41;;;;;;;15.45;5.38;;;11.90;68.10;;;;;;6281663;28;20049;-83
2021/11/07 10:54:14;;;;;;;7.88;4.07;;;12.00;67.80;;;;;;6281025;28;20765;-83
2021/11/07 10:57:20;;;;;;;26.33;10.50;;;12.10;67.30;;;;;;6280825;28;20073;-83
2021/11/07 11:00:27;;;;;;;7.40;3.95;;;12.00;67.00;;;;;;6283840;28;20471;-84
2021/11/07 11:03:29;;;;;;;13.95;6.30;;;12.10;67.10;;;;;;6279681;28;20140;-84
2021/11/07 11:06:32;;;;;;;9.45;4.93;;;12.20;66.90;;;;;;6278571;28;20065;-83
2021/11/07 11:09:44;;;;;;;8.43;5.05;;;12.20;67.00;;;;;;6275278;28;20045;-81
2021/11/07 11:13:27;;;;;;;7.93;4.50;;;12.30;67.10;;;;;;6279955;28;20045;-81
2021/11/07 11:16:38;;;;;;;11.70;6.07;;;12.40;66.50;;;;;;6255281;28;20044;-82
2021/11/07 11:19:59;;;;;;;10.82;5.15;;;12.30;66.90;;;;;;6278676;28;20052;-82
2021/11/07 11:23:09;;;;;;;14.98;6.43;;;12.10;67.50;;;;;;6279583;28;20067;-84
2021/11/07 11:26:25;;;;;;;8.85;4.95;;;12.00;67.70;;;;;;6278234;28;20439;-83
2021/11/07 11:29:46;;;;;;;12.35;6.25;;;11.90;67.80;;;;;;6279096;28;20099;-83
2021/11/07 11:32:52;;;;;;;26.08;16.63;;;11.80;68.10;;;;;;6279564;28;20250;-81
2021/11/07 11:36:01;;;;;;;12.70;8.93;;;11.80;68.60;;;;;;6280345;28;20048;-81
2021/11/07 11:39:10;;;;;;;11.60;5.28;;;11.60;68.50;;;;;;6279662;28;20089;-83
2021/11/07 11:42:15;;;;;;;7.07;4.00;;;11.70;68.60;;;;;;6279445;28;20056;-82
2021/11/07 11:45:21;;;;;;;11.13;4.82;;;11.80;69.60;;;;;;6279272;28;20061;-83
2021/11/07 11:55:32;;;;;;;11.88;4.90;;;11.70;68.90;;;;;;6266972;28;20037;-83
2021/11/07 11:58:38;;;;;;;9.25;4.60;;;11.60;69.00;;;;;;6272944;28;20143;-81
2021/11/07 12:01:49;;;;;;;10.35;4.20;;;11.60;69.10;;;;;;6279280;28;20128;-83
2021/11/07 12:05:14;;;;;;;7.40;4.32;;;11.60;69.50;;;;;;6225902;28;20053;-81
2021/11/07 12:08:31;;;;;;;8.43;3.70;;;11.60;69.50;;;;;;6278977;28;20044;-82
2021/11/07 12:11:47;;;;;;;7.10;3.53;;;11.70;69.40;;;;;;6274690;28;20067;-82
2021/11/07 12:15:00;;;;;;;5.63;3.55;;;11.60;69.60;;;;;;6280109;28;20049;-83
2021/11/07 12:18:06;;;;;;;5.40;3.22;;;11.50;69.80;;;;;;6280258;28;20049;-82
2021/11/07 12:21:07;;;;;;;4.75;3.20;;;11.50;70.10;;;;;;6279177;28;20048;-82
2021/11/07 12:24:09;;;;;;;28.13;18.10;;;11.40;71.50;;;;;;6278329;28;20033;-83
2021/11/07 12:27:25;;;;;;;8.68;4.07;;;11.40;72.70;;;;;;6278354;28;20517;-83
2021/11/07 12:30:29;;;;;;;4.47;3.13;;;11.50;72.30;;;;;;6278688;28;20059;-82
2021/11/07 12:33:48;;;;;;;6.38;3.42;;;11.50;71.60;;;;;;6278806;28;20053;-80
2021/11/07 12:40:42;;;;;;;7.70;3.13;;;11.40;73.20;;;;;;6277591;28;20430;-83
2021/11/07 12:43:47;;;;;;;9.35;4.07;;;11.30;74.10;;;;;;6278676;28;20541;-82
2021/11/07 12:46:55;;;;;;;6.22;3.45;;;11.30;74.00;;;;;;6280343;28;20718;-82
2021/11/07 12:49:59;;;;;;;9.25;2.92;;;11.20;74.20;;;;;;6278695;28;20045;-82
2021/11/07 12:53:03;;;;;;;8.40;3.80;;;11.10;75.30;;;;;;6277502;28;20104;-83
2021/11/07 12:56:10;;;;;;;8.30;4.38;;;11.10;77.10;;;;;;6278442;28;20053;-83
2021/11/07 12:59:16;;;;;;;12.13;4.80;;;11.10;78.30;;;;;;6283225;28;20051;-85
2021/11/07 13:02:25;;;;;;;7.63;4.13;;;11.00;79.40;;;;;;6283905;28;20561;-85
2021/11/07 13:05:33;;;;;;;11.68;3.58;;;10.90;79.90;;;;;;6283851;28;20128;-86
2021/11/07 13:08:42;;;;;;;6.80;4.53;;;11.00;80.50;;;;;;6282610;28;20049;-84
2021/11/07 13:11:48;;;;;;;11.38;5.38;;;11.00;81.30;;;;;;6279593;28;20047;-82
2021/11/07 13:15:26;;;;;;;10.43;5.03;;;10.80;81.50;;;;;;6275047;28;20516;-83
2021/11/07 13:18:49;;;;;;;6.45;4.18;;;10.80;82.30;;;;;;6281627;28;20415;-82
2021/11/07 13:22:13;;;;;;;11.45;4.53;;;10.50;83.20;;;;;;6282121;28;20633;-82
2021/11/07 13:25:21;;;;;;;10.30;4.90;;;10.40;85.00;;;;;;6282194;28;20045;-83
2021/11/07 13:28:33;;;;;;;16.10;6.13;;;10.40;85.30;;;;;;6280945;28;20399;-84
2021/11/07 13:31:55;;;;;;;8.60;5.65;;;10.50;85.60;;;;;;6287603;28;20055;-82
2021/11/07 13:35:00;;;;;;;6.97;4.18;;;10.40;85.70;;;;;;6290630;28;20052;-82
2021/11/07 13:38:10;;;;;;;7.95;4.18;;;10.40;85.90;;;;;;6289188;28;20104;-85
2021/11/07 13:41:17;;;;;;;7.18;4.18;;;10.40;86.10;;;;;;6288117;28;20105;-82
2021/11/07 13:44:23;;;;;;;8.33;4.33;;;10.40;86.30;;;;;;6297341;28;20072;-83
2021/11/07 13:47:31;;;;;;;13.50;4.63;;;10.40;86.70;;;;;;6286347;28;20487;-83
2021/11/07 13:50:35;;;;;;;8.55;4.43;;;10.30;86.70;;;;;;6284607;28;20072;-84
2021/11/07 13:53:39;;;;;;;10.95;5.82;;;10.30;87.10;;;;;;6280814;28;20053;-85
2021/11/07 13:56:45;;;;;;;7.97;5.20;;;10.30;87.00;;;;;;6281277;28;20526;-83
2021/11/07 13:59:47;;;;;;;10.93;4.97;;;10.20;87.60;;;;;;6280113;28;20045;-83
2021/11/07 14:02:53;;;;;;;11.02;6.45;;;10.20;88.00;;;;;;6281904;28;20140;-84
2021/11/07 14:06:05;;;;;;;25.88;12.13;;;10.20;88.10;;;;;;6281052;28;20114;-86
2021/11/07 14:09:09;;;;;;;9.73;5.07;;;10.10;88.20;;;;;;6278654;28;20049;-84
2021/11/07 14:12:35;;;;;;;14.80;5.70;;;10.20;88.30;;;;;;6279640;28;20041;-84
2021/11/07 14:15:42;;;;;;;11.00;6.32;;;10.10;88.30;;;;;;6266243;28;20045;-81
2021/11/07 14:18:48;;;;;;;11.15;6.05;;;10.20;88.60;;;;;;6276437;28;20115;-81
2021/11/07 14:21:51;;;;;;;10.95;6.53;;;10.30;89.00;;;;;;6260977;28;20056;-83
2021/11/07 14:24:53;;;;;;;11.02;5.65;;;10.30;88.30;;;;;;6257646;28;20418;-83
2021/11/07 14:28:08;;;;;;;11.02;5.28;;;10.40;87.80;;;;;;6256321;28;20041;-84
2021/11/07 14:31:18;;;;;;;12.70;6.45;;;10.40;87.60;;;;;;6256530;28;20140;-83
2021/11/07 14:34:27;;;;;;;11.63;4.65;;;10.30;87.70;;;;;;6255951;28;20046;-85
2021/11/07 14:37:34;;;;;;;13.02;6.85;;;10.50;87.70;;;;;;6256525;28;20068;-82
2021/11/07 14:40:43;;;;;;;19.70;7.60;;;10.50;87.30;;;;;;6267154;28;20058;-82
2021/11/07 14:43:51;;;;;;;14.68;6.47;;;10.50;87.20;;;;;;6280832;28;20044;-83
2021/11/07 14:47:05;;;;;;;;;;;10.50;86.80;;;;;;6282705;28;20071;-83
2021/11/07 14:50:42;;;;;;;61.83;38.20;;;10.50;87.10;;;;;;6279221;28;20432;-81
2021/11/07 14:53:48;;;;;;;12.30;6.53;;;10.40;87.30;;;;;;6279992;28;20049;-82
2021/11/07 14:57:07;;;;;;;9.98;5.60;;;10.40;87.40;;;;;;6281544;28;20045;-82
2021/11/07 15:00:15;;;;;;;8.15;5.18;;;10.40;87.50;;;;;;6280378;28;20037;-80
2021/11/07 15:03:19;;;;;;;13.10;6.28;;;10.40;87.60;;;;;;6280526;28;20056;-79
2021/11/07 15:06:40;;;;;;;15.60;7.85;;;10.50;87.60;;;;;;6278911;28;20045;-80
2021/11/07 15:09:55;;;;;;;11.27;6.07;;;10.60;87.60;;;;;;6278072;28;20067;-80
2021/11/07 15:13:21;;;;;;;13.93;5.30;;;10.60;87.40;;;;;;6267935;28;20046;-80
2021/11/07 15:16:29;;;;;;;9.38;6.05;;;10.60;87.40;;;;;;6253758;28;20164;-81
2021/11/07 15:19:34;;;;;;;;;;;10.60;87.30;;;;;;6254044;28;20144;-80
2021/11/07 15:22:45;;;;;;;11.82;6.47;;;10.60;87.60;;;;;;6254739;28;19976;-80
2021/11/07 15:25:47;;;;;;;13.43;6.47;;;10.50;87.60;;;;;;6254553;28;20056;-81
2021/11/07 15:29:02;;;;;;;11.45;7.28;;;10.60;87.90;;;;;;6253984;28;20045;-79
2021/11/07 15:32:08;;;;;;;12.93;6.72;;;10.50;88.10;;;;;;6253459;28;20483;-80
2021/11/07 15:35:19;;;;;;;12.63;7.35;;;10.50;88.30;;;;;;6253999;28;20041;-79
2021/11/07 15:38:24;;;;;;;12.80;6.50;;;10.40;88.70;;;;;;6253415;28;20138;-80
2021/11/07 15:41:26;;;;;;;16.92;7.38;;;10.40;89.00;;;;;;6265147;28;20048;-80
2021/11/07 15:44:28;;;;;;;12.23;5.95;;;10.50;89.20;;;;;;6277251;28;20441;-80
2021/11/07 15:47:34;;;;;;;15.93;7.18;;;10.40;89.10;;;;;;6276318;28;20049;-80
2021/11/07 15:50:43;;;;;;;11.88;6.60;;;10.40;89.40;;;;;;6276522;28;20108;-80
2021/11/07 15:53:57;;;;;;;11.32;6.63;;;10.50;89.50;;;;;;6276988;28;20053;-81
2021/11/07 15:57:08;;;;;;;10.88;7.38;;;10.50;89.60;;;;;;6276746;28;20060;-81
2021/11/07 16:00:23;;;;;;;11.82;6.35;;;10.40;89.80;;;;;;6276803;28;20083;-82
2021/11/07 16:03:34;;;;;;;14.43;7.35;;;10.40;89.80;;;;;;6276130;28;20064;-80
2021/11/07 16:06:51;;;;;;;15.13;7.07;;;10.40;90.00;;;;;;6277510;28;20045;-81
2021/11/07 16:10:16;;;;;;;8.98;5.60;;;10.40;90.10;;;;;;6272383;28;20045;-80
2021/11/07 16:13:26;;;;;;;11.25;5.97;;;10.40;90.10;;;;;;6274085;28;20782;-80
2021/11/07 16:16:38;;;;;;;11.05;7.07;;;10.40;90.10;;;;;;6270899;28;20074;-80
2021/11/07 16:19:42;;;;;;;9.60;5.65;;;10.40;90.20;;;;;;6275401;28;20159;-81
2021/11/07 16:22:47;;;;;;;14.63;6.68;;;10.40;90.20;;;;;;6277420;28;20045;-80
2021/11/07 16:25:51;;;;;;;13.85;7.30;;;10.50;90.30;;;;;;6276889;28;20041;-81
2021/11/07 16:28:54;;;;;;;16.25;6.93;;;10.40;90.40;;;;;;6277485;28;20470;-81
2021/11/07 16:32:04;;;;;;;11.05;6.28;;;10.40;90.40;;;;;;6277491;28;20594;-82
2021/11/07 16:35:10;;;;;;;12.68;6.10;;;10.50;90.40;;;;;;6282410;28;20495;-82
2021/11/07 16:38:20;;;;;;;14.40;6.18;;;10.40;90.40;;;;;;6279951;28;20063;-81